createdAt,value
2019-04-28T00:02:12.451Z,4.33
2019-04-28T00:04:42.245Z,4.23
2019-04-28T00:07:11.923Z,4.37
2019-04-28T00:09:41.657Z,4.60
2019-04-28T00:12:11.489Z,4.00
2019-04-28T00:14:41.793Z,3.60
2019-04-28T00:17:11.209Z,4.53
2019-04-28T00:19:40.870Z,4.97
2019-04-28T00:22:14.157Z,4.10
2019-04-28T00:24:51.410Z,4.27
2019-04-28T00:27:21.534Z,4.60
2019-04-28T00:29:51.778Z,4.83
2019-04-28T00:32:22.773Z,4.77
2019-04-28T00:34:51.333Z,4.13
2019-04-28T00:37:25.391Z,4.37
2019-04-28T00:39:57.580Z,4.30
2019-04-28T00:42:26.211Z,4.35
2019-04-28T00:44:54.867Z,4.60
2019-04-28T00:47:23.737Z,4.67
2019-04-28T00:49:52.243Z,3.90
2019-04-28T00:52:22.138Z,4.20
2019-04-28T00:54:52.597Z,4.28
2019-04-28T00:57:21.587Z,4.00
2019-04-28T00:59:58.264Z,4.17
2019-04-28T01:02:25.337Z,3.87
2019-04-28T01:04:53.839Z,4.03
2019-04-28T01:07:22.469Z,3.53
2019-04-28T01:09:51.641Z,4.83
2019-04-28T01:12:21.236Z,3.97
2019-04-28T01:14:52.926Z,3.93
2019-04-28T01:17:39.782Z,4.28
2019-04-28T01:20:10.291Z,4.53
2019-04-28T01:22:40.165Z,4.23
2019-04-28T01:25:10.660Z,4.20
2019-04-28T01:27:40.891Z,4.37
2019-04-28T01:30:13.295Z,3.53
2019-04-28T01:32:46.306Z,3.97
2019-04-28T01:35:15.097Z,4.37
2019-04-28T01:37:44.333Z,4.05
2019-04-28T01:40:12.980Z,3.60
2019-04-28T01:42:41.445Z,4.17
2019-04-28T01:45:10.602Z,3.67
2019-04-28T01:47:40.471Z,4.57
2019-04-28T01:50:11.066Z,3.70
2019-04-28T01:52:40.106Z,3.43
2019-04-28T01:55:10.414Z,3.77
2019-04-28T01:57:40.520Z,4.70
2019-04-28T02:00:22.259Z,4.17
2019-04-28T02:02:42.136Z,4.03
2019-04-28T02:05:11.285Z,3.43
2019-04-28T02:07:41.391Z,3.73
2019-04-28T02:10:10.395Z,4.83
2019-04-28T02:12:40.358Z,4.47
2019-04-28T02:15:10.471Z,4.40
2019-04-28T02:17:40.652Z,4.27
2019-04-28T02:20:10.433Z,4.50
2019-04-28T02:22:47.284Z,3.87
2019-04-28T02:25:19.559Z,4.03
2019-04-28T02:27:50.232Z,4.43
2019-04-28T02:30:22.610Z,4.20
2019-04-28T02:32:51.560Z,4.03
2019-04-28T02:35:21.365Z,4.00
2019-04-28T02:37:50.859Z,4.67
2019-04-28T02:40:20.891Z,5.00
2019-04-28T02:42:52.154Z,4.40
2019-04-28T02:45:23.239Z,4.27
2019-04-28T02:47:53.356Z,4.23
2019-04-28T02:50:26.317Z,4.13
2019-04-28T02:53:01.659Z,4.35
2019-04-28T02:55:31.634Z,4.40
2019-04-28T02:58:01.512Z,4.47
2019-04-28T03:00:31.742Z,4.17
2019-04-28T03:03:01.561Z,4.80
2019-04-28T03:05:51.186Z,4.37
2019-04-28T03:08:21.511Z,4.37
2019-04-28T03:10:50.889Z,4.80
2019-04-28T03:13:21.164Z,4.53
2019-04-28T03:15:52.588Z,4.30
2019-04-28T03:18:21.565Z,4.37
2019-04-28T03:20:51.530Z,5.12
2019-04-28T03:23:22.940Z,5.53
2019-04-28T03:26:05.385Z,5.13
2019-04-28T03:28:41.167Z,5.83
2019-04-28T03:31:50.995Z,6.13
2019-04-28T03:34:03.366Z,5.53
2019-04-28T03:36:33.003Z,6.63
2019-04-28T03:39:03.122Z,5.83
2019-04-28T03:41:31.747Z,6.23
2019-04-28T03:44:01.831Z,7.80
2019-04-28T03:46:31.964Z,7.37
2019-04-28T03:49:01.450Z,6.83
2019-04-28T03:51:30.935Z,8.37
2019-04-28T03:54:00.615Z,7.77
2019-04-28T03:56:31.029Z,7.93
2019-04-28T03:59:00.431Z,7.00
2019-04-28T04:01:30.478Z,5.70
2019-04-28T04:04:01.187Z,5.77
2019-04-28T04:06:32.274Z,4.50
2019-04-28T04:09:00.860Z,4.23
2019-04-28T04:11:33.776Z,4.67
2019-04-28T04:14:06.721Z,4.43
2019-04-28T04:16:42.806Z,3.97
2019-04-28T04:19:12.902Z,4.00
2019-04-28T04:21:41.627Z,3.70
2019-04-28T04:24:10.850Z,3.72
2019-04-28T04:26:41.210Z,3.53
2019-04-28T04:29:10.334Z,3.87
2019-04-28T04:31:41.110Z,3.60
2019-04-28T04:34:10.730Z,3.77
2019-04-28T04:36:41.679Z,3.97
2019-04-28T04:39:10.823Z,3.15
2019-04-28T04:41:43.433Z,3.23
2019-04-28T04:44:12.354Z,2.98
2019-04-28T04:46:41.566Z,3.40
2019-04-28T04:49:11.970Z,2.83
2019-04-28T04:51:43.788Z,3.23
2019-04-28T04:54:10.973Z,3.10
2019-04-28T04:56:40.177Z,2.93
2019-04-28T04:59:10.231Z,2.87
2019-04-28T05:01:41.492Z,3.37
2019-04-28T05:04:19.620Z,2.77
2019-04-28T05:06:49.621Z,2.90
2019-04-28T05:09:19.645Z,2.97
2019-04-28T05:11:50.045Z,3.10
2019-04-28T05:14:19.918Z,3.13
2019-04-28T05:16:49.831Z,3.93
2019-04-28T05:19:20.017Z,3.97
2019-04-28T05:21:50.295Z,2.97
2019-04-28T05:24:26.264Z,4.27
2019-04-28T05:26:55.214Z,2.90
2019-04-28T05:29:26.924Z,4.00
2019-04-28T05:31:54.946Z,3.40
2019-04-28T05:34:24.665Z,3.67
2019-04-28T05:36:54.145Z,3.50
2019-04-28T05:39:24.134Z,3.83
2019-04-28T05:41:57.386Z,3.97
2019-04-28T05:44:25.848Z,4.30
2019-04-28T05:46:55.576Z,3.95
2019-04-28T05:49:41.850Z,4.30
2019-04-28T05:52:29.927Z,5.03
2019-04-28T05:55:11.000Z,4.20
2019-04-28T05:57:42.780Z,4.63
2019-04-28T06:00:25.209Z,4.13
2019-04-28T06:02:56.894Z,4.50
2019-04-28T06:05:31.933Z,3.80
2019-04-28T06:10:42.824Z,4.22
2019-04-28T06:13:11.396Z,3.53
2019-04-28T06:15:41.898Z,4.67
2019-04-28T06:18:11.626Z,3.67
2019-04-28T06:20:41.427Z,4.00
2019-04-28T06:23:10.040Z,3.83
2019-04-28T06:25:38.933Z,3.90
2019-04-28T06:28:07.388Z,4.23
2019-04-28T06:30:38.172Z,3.80
2019-04-28T06:33:08.135Z,5.53
2019-04-28T06:35:39.642Z,4.17
2019-04-28T06:38:11.015Z,5.47
2019-04-28T06:40:39.467Z,4.53
2019-04-28T06:43:10.832Z,5.20
2019-04-28T06:45:39.332Z,4.50
2019-04-28T06:48:11.928Z,4.67
2019-04-28T06:50:43.311Z,5.27
2019-04-28T06:53:11.774Z,6.07
2019-04-28T06:55:42.603Z,5.83
2019-04-28T06:58:11.221Z,5.47
2019-04-28T07:00:41.390Z,5.70
2019-04-28T07:03:22.415Z,5.80
2019-04-28T07:05:40.203Z,6.40
2019-04-28T07:08:09.033Z,5.50
2019-04-28T07:10:37.689Z,5.60
2019-04-28T07:13:06.494Z,6.08
2019-04-28T07:15:36.674Z,5.87
2019-04-28T07:18:06.627Z,5.60
2019-04-28T07:20:38.249Z,7.03
2019-04-28T07:23:08.617Z,6.80
2019-04-28T07:25:37.151Z,6.08
2019-04-28T07:28:07.098Z,6.47
2019-04-28T07:30:37.293Z,6.80
2019-04-28T07:33:05.854Z,5.83
2019-04-28T07:35:34.429Z,6.67
2019-04-28T07:38:03.079Z,6.63
2019-04-28T07:40:31.776Z,6.72
2019-04-28T07:43:00.405Z,6.93
2019-04-28T07:45:28.872Z,6.93
2019-04-28T07:47:58.647Z,7.25
2019-04-28T07:50:28.509Z,7.25
2019-04-28T07:53:04.342Z,6.73
2019-04-28T07:55:32.819Z,7.90
2019-04-28T07:58:02.583Z,7.00
2019-04-28T08:00:34.963Z,6.40
2019-04-28T08:03:03.492Z,5.93
2019-04-28T08:05:33.229Z,5.67
2019-04-28T08:08:01.770Z,5.00
2019-04-28T08:10:31.373Z,4.80
2019-04-28T08:12:59.877Z,4.50
2019-04-28T08:15:30.343Z,4.47
2019-04-28T08:17:58.814Z,5.33
2019-04-28T08:20:27.371Z,5.27
2019-04-28T08:22:57.208Z,5.03
2019-04-28T08:25:25.736Z,4.80
2019-04-28T08:27:55.366Z,4.37
2019-04-28T08:30:26.720Z,3.70
2019-04-28T08:32:56.848Z,3.67
2019-04-28T08:35:25.321Z,3.77
2019-04-28T08:37:54.882Z,3.20
2019-04-28T08:40:23.412Z,3.50
2019-04-28T08:42:52.157Z,2.70
2019-04-28T08:45:21.077Z,2.50
2019-04-28T08:47:49.634Z,2.60
2019-04-28T08:50:18.424Z,2.30
2019-04-28T08:52:48.490Z,2.30
2019-04-28T08:55:17.766Z,2.73
2019-04-28T08:57:46.859Z,1.87
2019-04-28T09:00:17.304Z,1.70
2019-04-28T09:02:45.916Z,2.00
2019-04-28T09:05:14.458Z,1.98
2019-04-28T09:07:44.873Z,1.70
2019-04-28T09:10:13.596Z,1.60
2019-04-28T09:12:43.742Z,1.63
2019-04-28T09:15:13.854Z,1.72
2019-04-28T09:17:42.582Z,1.67
2019-04-28T09:20:11.276Z,1.55
2019-04-28T09:22:41.198Z,1.20
2019-04-28T09:25:09.917Z,1.63
2019-04-28T09:27:40.402Z,1.20
2019-04-28T09:30:09.221Z,1.57
2019-04-28T09:32:39.374Z,1.45
2019-04-28T09:35:09.330Z,1.70
2019-04-28T09:37:38.072Z,2.00
2019-04-28T09:40:12.998Z,2.30
2019-04-28T09:42:53.147Z,2.70
2019-04-28T09:45:29.890Z,3.20
2019-04-28T09:47:59.836Z,3.80
2019-04-28T09:50:28.384Z,3.43
2019-04-28T09:52:57.232Z,2.93
2019-04-28T09:55:26.878Z,3.10
2019-04-28T09:57:56.962Z,3.53
2019-04-28T10:00:27.524Z,3.80
2019-04-28T10:02:56.158Z,4.20
2019-04-28T10:05:25.731Z,4.13
2019-04-28T10:07:54.250Z,3.97
2019-04-28T10:10:22.792Z,3.80
2019-04-28T10:12:51.252Z,3.58
2019-04-28T10:15:19.763Z,3.65
2019-04-28T10:17:51.214Z,3.60
2019-04-28T10:20:19.927Z,3.50
2019-04-28T10:22:48.484Z,4.37
2019-04-28T10:25:17.002Z,3.95
2019-04-28T10:27:46.491Z,3.60
2019-04-28T10:30:15.419Z,4.23
2019-04-28T10:32:44.813Z,3.00
2019-04-28T10:35:13.632Z,3.37
2019-04-28T10:37:45.522Z,2.58
2019-04-28T10:40:29.048Z,3.52
2019-04-28T10:42:57.738Z,3.10
2019-04-28T10:45:27.871Z,4.20
2019-04-28T10:47:56.453Z,4.83
2019-04-28T10:50:25.933Z,4.27
2019-04-28T10:52:55.917Z,4.80
2019-04-28T10:55:25.245Z,4.63
2019-04-28T10:57:57.206Z,5.00
2019-04-28T11:00:28.592Z,5.43
2019-04-28T11:03:03.174Z,5.60
2019-04-28T11:05:42.725Z,4.28
2019-04-28T11:08:13.043Z,4.10
2019-04-28T11:10:43.219Z,3.30
2019-04-28T11:13:13.006Z,3.50
2019-04-28T11:15:41.581Z,3.83
2019-04-28T11:18:12.783Z,3.67
2019-04-28T11:20:42.469Z,3.60
2019-04-28T11:23:11.021Z,4.10
2019-04-28T11:25:41.749Z,3.30
2019-04-28T11:28:12.047Z,3.70
2019-04-28T11:30:40.673Z,3.83
2019-04-28T11:33:10.931Z,4.60
2019-04-28T11:35:41.119Z,4.85
2019-04-28T11:38:09.832Z,4.87
2019-04-28T11:40:42.393Z,4.80
2019-04-28T11:43:10.891Z,3.60
2019-04-28T11:45:39.463Z,2.20
2019-04-28T11:48:07.965Z,2.97
2019-04-28T11:50:38.106Z,2.60
2019-04-28T11:53:06.595Z,3.10
2019-04-28T11:55:38.250Z,2.97
2019-04-28T11:58:06.783Z,3.20
2019-04-28T12:00:36.150Z,3.23
2019-04-28T12:03:04.748Z,4.50
2019-04-28T12:05:38.554Z,4.40
2019-04-28T12:08:07.654Z,3.80
2019-04-28T12:10:50.889Z,4.40
2019-04-28T12:13:23.714Z,3.60
2019-04-28T12:16:10.151Z,3.20
2019-04-28T12:18:58.321Z,3.10
2019-04-28T12:21:17.282Z,3.77
2019-04-28T12:23:48.488Z,3.53
2019-04-28T12:26:17.005Z,2.73
2019-04-28T12:28:47.022Z,3.00
2019-04-28T12:31:15.500Z,2.47
2019-04-28T12:33:48.688Z,2.83
2019-04-28T12:36:17.517Z,3.10
2019-04-28T12:38:47.538Z,2.37
2019-04-28T12:41:21.020Z,3.00
2019-04-28T12:43:50.659Z,2.33
2019-04-28T12:46:21.912Z,2.33
2019-04-28T12:48:52.610Z,3.00
2019-04-28T12:51:23.747Z,2.60
2019-04-28T12:53:53.840Z,2.83
2019-04-28T12:56:22.337Z,2.93
2019-04-28T12:58:53.666Z,2.80
2019-04-28T13:01:36.034Z,2.70
2019-04-28T13:04:17.219Z,3.10
2019-04-28T13:06:47.432Z,3.20
2019-04-28T13:09:18.176Z,3.27
2019-04-28T13:11:50.088Z,2.93
2019-04-28T13:14:18.784Z,2.93
2019-04-28T13:16:47.264Z,2.80
2019-04-28T13:19:15.742Z,2.92
2019-04-28T13:21:46.172Z,3.00
2019-04-28T13:24:14.699Z,2.80
2019-04-28T13:26:43.262Z,3.27
2019-04-28T13:29:11.968Z,3.63
2019-04-28T13:31:43.030Z,3.13
2019-04-28T13:34:13.302Z,4.03
2019-04-28T13:36:41.978Z,3.70
2019-04-28T13:39:12.444Z,4.33
2019-04-28T13:41:41.482Z,4.10
2019-04-28T13:44:11.651Z,4.47
2019-04-28T13:46:41.700Z,4.22
2019-04-28T13:49:15.032Z,4.47
2019-04-28T13:51:43.591Z,4.70
2019-04-28T13:54:14.982Z,4.17
2019-04-28T13:56:43.812Z,4.67
2019-04-28T13:59:16.845Z,3.72
2019-04-28T14:01:52.404Z,4.33
2019-04-28T14:04:25.209Z,4.10
2019-04-28T14:06:54.774Z,4.62
2019-04-28T14:09:24.931Z,4.00
2019-04-28T14:11:53.415Z,5.13
2019-04-28T14:14:23.120Z,4.47
2019-04-28T14:16:51.633Z,4.27
2019-04-28T14:19:21.355Z,5.12
2019-04-28T14:21:49.905Z,5.10
2019-04-28T14:24:21.112Z,4.87
2019-04-28T14:26:50.131Z,5.17
2019-04-28T14:29:18.726Z,5.30
2019-04-28T14:31:47.503Z,5.90
2019-04-28T14:34:20.191Z,5.90
2019-04-28T14:36:50.161Z,5.70
2019-04-28T14:39:19.937Z,5.77
2019-04-28T14:41:51.530Z,5.57
2019-04-28T14:44:20.467Z,5.50
2019-04-28T14:46:51.892Z,6.10
2019-04-28T14:49:20.403Z,5.78
2019-04-28T14:51:50.303Z,5.53
2019-04-28T14:54:18.814Z,5.73
2019-04-28T14:56:51.518Z,5.75
2019-04-28T14:59:20.225Z,5.50
2019-04-28T15:02:09.409Z,5.50
2019-04-28T15:04:53.073Z,5.17
2019-04-28T15:07:39.388Z,5.55
2019-04-28T15:10:27.075Z,5.57
2019-04-28T15:12:56.387Z,4.80
2019-04-28T15:15:27.908Z,4.55
2019-04-28T15:17:59.114Z,4.80
2019-04-28T15:20:27.606Z,4.63
2019-04-28T15:23:01.665Z,5.00
2019-04-28T15:25:31.309Z,5.63
2019-04-28T15:27:59.777Z,4.90
2019-04-28T15:30:28.332Z,4.90
2019-04-28T15:33:02.148Z,5.10
2019-04-28T15:35:32.285Z,4.33
2019-04-28T15:38:01.383Z,4.63
2019-04-28T15:40:29.849Z,5.13
2019-04-28T15:42:58.314Z,5.00
2019-04-28T15:45:30.105Z,4.60
2019-04-28T15:47:58.566Z,4.33
2019-04-28T15:50:27.024Z,4.70
2019-04-28T15:52:56.660Z,5.33
2019-04-28T15:55:27.132Z,5.17
2019-04-28T15:57:55.618Z,4.47
2019-04-28T16:00:24.194Z,5.07
2019-04-28T16:02:54.158Z,4.83
2019-04-28T16:05:23.667Z,5.73
2019-04-28T16:07:53.227Z,5.87
2019-04-28T16:10:23.784Z,5.30
2019-04-28T16:12:54.992Z,5.50
2019-04-28T16:15:24.248Z,8.43
2019-04-28T16:17:52.712Z,7.95
2019-04-28T16:20:21.272Z,7.87
2019-04-28T16:22:49.754Z,7.70
2019-04-28T16:25:18.339Z,8.40
2019-04-28T16:27:47.171Z,7.30
2019-04-28T16:30:18.009Z,7.10
2019-04-28T16:32:46.562Z,6.53
2019-04-28T16:35:15.622Z,7.17
2019-04-28T16:37:44.072Z,7.10
2019-04-28T16:40:14.871Z,7.73
2019-04-28T16:42:43.873Z,7.03
2019-04-28T16:45:14.337Z,6.07
2019-04-28T16:47:42.936Z,7.50
2019-04-28T16:50:14.927Z,6.43
2019-04-28T16:52:46.197Z,6.13
2019-04-28T16:55:22.410Z,5.33
2019-04-28T16:58:08.721Z,5.03
2019-04-28T17:00:42.939Z,5.80
2019-04-28T17:03:13.039Z,6.10
2019-04-28T17:05:41.563Z,6.60
2019-04-28T17:08:11.160Z,6.43
2019-04-28T17:10:39.617Z,6.40
2019-04-28T17:13:10.978Z,6.30
2019-04-28T17:15:40.131Z,6.93
2019-04-28T17:18:10.046Z,6.90
2019-04-28T17:20:40.743Z,6.80
2019-04-28T17:23:09.291Z,7.25
2019-04-28T17:25:37.792Z,7.20
2019-04-28T17:28:07.715Z,6.40
2019-04-28T17:30:36.467Z,6.60
2019-04-28T17:33:06.223Z,7.87
2019-04-28T17:35:37.219Z,6.73
2019-04-28T17:38:06.850Z,5.90
2019-04-28T17:40:35.891Z,5.78
2019-04-28T17:43:04.545Z,5.30
2019-04-28T17:45:36.813Z,6.10
2019-04-28T17:48:11.997Z,5.73
2019-04-28T17:50:38.242Z,7.08
2019-04-28T17:53:12.275Z,7.43
2019-04-28T17:55:40.864Z,7.87
2019-04-28T17:58:12.704Z,7.30
2019-04-28T18:00:54.824Z,6.90
2019-04-28T18:03:26.142Z,6.77
2019-04-28T18:05:57.793Z,6.60
2019-04-28T18:08:26.925Z,7.78
2019-04-28T18:10:55.410Z,7.80
2019-04-28T18:13:23.971Z,7.73
2019-04-28T18:15:56.854Z,7.50
2019-04-28T18:18:33.407Z,7.92
2019-04-28T18:21:02.072Z,8.73
2019-04-28T18:23:30.618Z,9.53
2019-04-28T18:25:59.275Z,8.75
2019-04-28T18:28:29.463Z,8.30
2019-04-28T18:31:02.462Z,8.40
2019-04-28T18:33:38.867Z,8.50
2019-04-28T18:36:19.195Z,8.67
2019-04-28T18:38:52.971Z,8.30
2019-04-28T18:41:41.278Z,7.13
2019-04-28T18:44:14.589Z,8.47
2019-04-28T18:46:43.089Z,8.10
2019-04-28T18:49:12.224Z,8.33
2019-04-28T18:51:42.227Z,8.20
2019-04-28T18:54:14.700Z,8.43
2019-04-28T18:56:43.315Z,9.13
2019-04-28T18:59:13.060Z,9.43
2019-04-28T19:01:44.298Z,9.50
2019-04-28T19:04:12.942Z,9.10
2019-04-28T19:06:44.694Z,10.03
2019-04-28T19:09:31.202Z,9.28
2019-04-28T19:12:01.323Z,10.05
2019-04-28T19:14:37.418Z,10.80
2019-04-28T19:17:09.673Z,10.57
2019-04-28T19:19:40.694Z,10.83
2019-04-28T19:22:10.757Z,11.37
2019-04-28T19:24:43.294Z,11.73
2019-04-28T19:27:11.853Z,11.63
2019-04-28T19:29:43.134Z,11.63
2019-04-28T19:32:12.742Z,11.03
2019-04-28T19:34:43.366Z,12.07
2019-04-28T19:37:11.855Z,11.77
2019-04-28T19:39:41.823Z,11.00
2019-04-28T19:42:10.302Z,12.27
2019-04-28T19:44:40.362Z,12.90
2019-04-28T19:47:11.677Z,12.57
2019-04-28T19:49:40.212Z,12.83
2019-04-28T19:52:08.692Z,12.70
2019-04-28T19:54:38.892Z,14.20
2019-04-28T19:57:08.984Z,12.37
2019-04-28T19:59:56.574Z,14.77
2019-04-28T20:02:28.218Z,13.83
2019-04-28T20:05:00.552Z,14.27
2019-04-28T20:07:29.065Z,13.48
2019-04-28T20:09:57.596Z,13.40
2019-04-28T20:12:29.152Z,13.97
2019-04-28T20:14:59.160Z,14.67
2019-04-28T20:17:28.564Z,15.53
2019-04-28T20:19:57.035Z,15.00
2019-04-28T20:22:25.640Z,15.30
2019-04-28T20:24:54.187Z,14.50
2019-04-28T20:27:22.675Z,15.03
2019-04-28T20:29:53.938Z,15.57
2019-04-28T20:32:24.065Z,16.23
2019-04-28T20:35:12.384Z,17.67
2019-04-28T20:37:46.322Z,17.90
2019-04-28T20:40:22.238Z,18.30
2019-04-28T20:43:06.466Z,17.57
2019-04-28T20:45:35.078Z,17.93
2019-04-28T20:48:04.683Z,18.33
2019-04-28T20:50:33.162Z,19.97
2019-04-28T20:53:04.054Z,19.77
2019-04-28T20:55:32.519Z,22.53
2019-04-28T20:58:03.937Z,21.93
2019-04-28T21:00:33.853Z,20.83
2019-04-28T21:03:02.411Z,20.87
2019-04-28T21:05:32.043Z,19.67
2019-04-28T21:08:00.579Z,21.03
2019-04-28T21:10:37.713Z,22.20
2019-04-28T21:13:00.455Z,21.05
2019-04-28T21:15:33.766Z,21.20
2019-04-28T21:18:02.920Z,20.83
2019-04-28T21:20:31.471Z,20.50
2019-04-28T21:22:59.925Z,20.57
2019-04-28T21:25:30.871Z,23.97
2019-04-28T21:27:59.349Z,24.30
2019-04-28T21:30:28.776Z,22.85
2019-04-28T21:33:00.049Z,22.30
2019-04-28T21:35:28.953Z,23.27
2019-04-28T21:37:57.502Z,21.87
2019-04-28T21:40:28.261Z,22.43
2019-04-28T21:43:04.127Z,22.93
2019-04-28T21:45:50.824Z,23.50
2019-04-28T21:48:32.743Z,22.23
2019-04-28T21:51:02.671Z,22.37
2019-04-28T21:53:31.129Z,23.70
2019-04-28T21:56:00.693Z,24.10
2019-04-28T21:58:33.371Z,23.60
2019-04-28T22:00:59.836Z,23.17
2019-04-28T22:03:28.496Z,24.02
2019-04-28T22:05:56.985Z,24.73
2019-04-28T22:08:25.513Z,24.03
2019-04-28T22:10:53.978Z,22.53
2019-04-28T22:13:24.216Z,23.63
2019-04-28T22:15:52.700Z,22.40
2019-04-28T22:18:22.460Z,22.07
2019-04-28T22:20:55.362Z,24.20
2019-04-28T22:23:28.373Z,23.87
2019-04-28T22:25:57.114Z,23.47
2019-04-28T22:28:27.158Z,23.90
2019-04-28T22:33:31.618Z,23.67
2019-04-28T22:36:00.156Z,24.77
2019-04-28T22:38:29.786Z,23.27
2019-04-28T22:41:17.619Z,23.40
2019-04-28T22:43:46.268Z,24.67
2019-04-28T22:46:14.888Z,24.83
2019-04-28T22:48:46.466Z,23.93
2019-04-28T22:51:16.462Z,23.87
2019-04-28T22:53:49.194Z,24.87
2019-04-28T22:59:16.103Z,27.67
2019-04-28T23:01:49.874Z,26.13
2019-04-28T23:04:36.103Z,24.37
2019-04-28T23:07:16.846Z,24.53
2019-04-28T23:09:36.707Z,24.10
2019-04-28T23:12:11.485Z,25.00
2019-04-28T23:14:41.611Z,24.67
2019-04-28T23:17:12.688Z,23.60
2019-04-28T23:19:44.240Z,25.73
2019-04-28T23:22:18.611Z,24.70
2019-04-28T23:24:51.494Z,23.40
2019-04-28T23:27:21.186Z,22.73
2019-04-28T23:29:51.209Z,23.97
2019-04-28T23:32:21.200Z,22.70
2019-04-28T23:34:51.244Z,24.53
2019-04-28T23:37:22.706Z,24.23
2019-04-28T23:39:52.836Z,23.53
2019-04-28T23:42:23.653Z,24.87
2019-04-28T23:44:59.231Z,25.03
2019-04-28T23:47:50.990Z,25.67
2019-04-28T23:50:21.160Z,26.57
2019-04-28T23:52:54.556Z,26.48
2019-04-28T23:55:26.048Z,26.67
2019-04-28T23:57:56.104Z,26.57
